Alta, Wyoming
Current Conditions -  °F | °C
As of 1:56 AM on Saturday 22 Nov 2014 (Local Time) from KDIJ Reporting Station
Overcast Overcast  
Wind Chill: -4°   Ceiling: 4100
Heat Index:   Visibility: 10mi
Dew Point: -2°   Wind: 7mph
Humidity: 88%   Direction: 70°ENE
Pressure: 29.89"   Gusts: NA
Location:  43.77°N, 110.98°W
Report Text: KDIJ 220856Z AUTO 07006KT 10SM OVC041 M01/M02 A2989 RMK AO2 58006 60000 T10051022 SNE42 P0000 SLP108
Loading
Personal Weather Stations






























Interactive Weather Map New forecast layout! Learn more

10-Day Weather Forecast

Advertisements
Track Severe Weather on mobile